Time;durP1;ratioP1;P1;durP2;ratioP2;P2;SDS_P1;SDS_P2;PMS_P1;PMS_P2;Temp;Humidity;BMP_temperature;BMP_pressure;BME280_temperature;BME280_humidity;BME280_pressure;Samples;Min_cycle;Max_cycle;Signal;HPM_P1;HPM_P2
2021/03/03 00:00:09;;;;;;;42.37;29.17;;;;;;;;;;1040768;28;20013;-50
2021/03/03 00:00:39;;;;;;;41.23;27.17;;;;;;;;;;1040849;28;20018;-52
2021/03/03 00:01:09;;;;;;;43.57;28.10;;;;;;;;;;1040665;28;20025;-51
2021/03/03 00:01:40;;;;;;;42.40;28.13;;;;;;;;;;1044721;28;20095;-50
2021/03/03 00:02:10;;;;;;;40.70;27.30;;;;;;;;;;1045169;28;20021;-52
2021/03/03 00:02:40;;;;;;;43.57;28.07;;;;;;;;;;1045235;28;20369;-50
2021/03/03 00:03:11;;;;;;;40.70;27.77;;;;;;;;;;1045290;28;20094;-50
2021/03/03 00:03:41;;;;;;;40.97;27.27;;;;;;;;;;1044731;28;20351;-50
2021/03/03 00:04:11;;;;;;;44.90;26.90;;;;;;;;;;1045023;28;20013;-51
2021/03/03 00:04:41;;;;;;;41.53;27.90;;;;;;;;;;1040804;28;20099;-51
2021/03/03 00:05:12;;;;;;;40.93;27.23;;;;;;;;;;1040787;28;20481;-52
2021/03/03 00:05:43;;;;;;;42.57;27.43;;;;;;;;;;1036776;28;20006;-51
2021/03/03 00:06:13;;;;;;;44.13;27.47;;;;;;;;;;1036702;28;20431;-52
2021/03/03 00:06:43;;;;;;;41.60;27.30;;;;;;;;;;1040880;28;20474;-49
2021/03/03 00:07:14;;;;;;;41.03;27.70;;;;;;;;;;1040358;28;20100;-51
2021/03/03 00:07:44;;;;;;;40.50;27.80;;;;;;;;;;1044318;28;20047;-50
2021/03/03 00:08:14;;;;;;;38.83;27.30;;;;;;;;;;1044999;28;20077;-51
2021/03/03 00:08:45;;;;;;;49.17;27.57;;;;;;;;;;1044901;28;20343;-50
2021/03/03 00:09:15;;;;;;;40.80;26.63;;;;;;;;;;1044502;28;20108;-50
2021/03/03 00:09:45;;;;;;;42.17;26.57;;;;;;;;;;1040885;28;20454;-50
2021/03/03 00:10:15;;;;;;;42.90;26.90;;;;;;;;;;1036759;28;20018;-50
2021/03/03 00:10:46;;;;;;;42.60;27.53;;;;;;;;;;1032692;28;20020;-49
2021/03/03 00:11:16;;;;;;;42.10;27.10;;;;;;;;;;1033260;28;20019;-49
2021/03/03 00:11:46;;;;;;;42.30;27.03;;;;;;;;;;1036719;28;20098;-49
2021/03/03 00:12:17;;;;;;;40.40;27.40;;;;;;;;;;1037941;28;20013;-50
2021/03/03 00:12:47;;;;;;;49.73;28.80;;;;;;;;;;1040940;28;20055;-49
2021/03/03 00:13:17;;;;;;;40.60;26.70;;;;;;;;;;1037700;28;20093;-50
2021/03/03 00:13:47;;;;;;;39.67;27.60;;;;;;;;;;1040731;28;20084;-49
2021/03/03 00:14:18;;;;;;;43.33;27.80;;;;;;;;;;1040671;28;20020;-48
2021/03/03 00:14:48;;;;;;;40.97;26.93;;;;;;;;;;1040815;28;20508;-49
2021/03/03 00:15:18;;;;;;;41.37;27.73;;;;;;;;;;1043834;28;20013;-50
2021/03/03 00:15:48;;;;;;;38.60;25.40;;;;;;;;;;1041063;28;20438;-49
2021/03/03 00:16:19;;;;;;;41.30;26.50;;;;;;;;;;1041054;28;20009;-50
2021/03/03 00:16:49;;;;;;;41.23;25.83;;;;;;;;;;1041069;28;20459;-52
2021/03/03 00:17:19;;;;;;;44.07;27.57;;;;;;;;;;1041523;28;20032;-49
2021/03/03 00:17:50;;;;;;;41.87;26.40;;;;;;;;;;1044581;28;20064;-50
2021/03/03 00:18:20;;;;;;;41.10;27.33;;;;;;;;;;1044421;28;20514;-49
2021/03/03 00:18:50;;;;;;;39.83;27.57;;;;;;;;;;1044866;28;20088;-49
2021/03/03 00:19:21;;;;;;;37.83;26.47;;;;;;;;;;1043994;28;20005;-49
2021/03/03 00:19:51;;;;;;;43.67;26.73;;;;;;;;;;1041058;28;20048;-48
2021/03/03 00:20:24;;;;;;;38.57;26.67;;;;;;;;;;1040993;28;20342;-52
2021/03/03 00:20:54;;;;;;;39.08;27.05;;;;;;;;;;1041295;28;20014;-50
2021/03/03 00:21:24;;;;;;;45.57;28.67;;;;;;;;;;1042115;28;20371;-51
2021/03/03 00:21:55;;;;;;;39.30;27.17;;;;;;;;;;1044922;28;20001;-52
2021/03/03 00:22:25;;;;;;;42.03;28.00;;;;;;;;;;1044850;28;20013;-50
2021/03/03 00:22:55;;;;;;;40.87;26.87;;;;;;;;;;1045056;28;20009;-49
2021/03/03 00:23:26;;;;;;;40.57;27.67;;;;;;;;;;1043208;28;20460;-50
2021/03/03 00:23:56;;;;;;;36.70;26.13;;;;;;;;;;1040806;28;20013;-50
2021/03/03 00:24:26;;;;;;;39.73;26.60;;;;;;;;;;1036461;28;20378;-50
2021/03/03 00:24:56;;;;;;;39.90;26.70;;;;;;;;;;1036823;28;20093;-49
2021/03/03 00:25:27;;;;;;;41.83;25.87;;;;;;;;;;1038399;28;20010;-51
2021/03/03 00:25:57;;;;;;;42.27;26.33;;;;;;;;;;1044880;28;20088;-49
2021/03/03 00:26:27;;;;;;;37.90;26.43;;;;;;;;;;1045048;28;20023;-49
2021/03/03 00:26:58;;;;;;;38.07;25.67;;;;;;;;;;1045299;28;20012;-48
2021/03/03 00:27:28;;;;;;;41.20;26.17;;;;;;;;;;1042551;28;20009;-51
2021/03/03 00:27:58;;;;;;;42.13;26.03;;;;;;;;;;1040934;28;20053;-52
2021/03/03 00:28:28;;;;;;;36.03;25.27;;;;;;;;;;1040533;28;20482;-49
2021/03/03 00:28:59;;;;;;;41.67;26.70;;;;;;;;;;1040149;28;20036;-49
2021/03/03 00:29:29;;;;;;;39.10;26.60;;;;;;;;;;1043153;28;20029;-50
2021/03/03 00:29:59;;;;;;;46.47;26.00;;;;;;;;;;1045034;28;20017;-50
2021/03/03 00:30:29;;;;;;;42.73;27.33;;;;;;;;;;1045144;28;20017;-50
2021/03/03 00:31:00;;;;;;;36.87;25.77;;;;;;;;;;1045183;28;20024;-50
2021/03/03 00:31:30;;;;;;;35.67;25.90;;;;;;;;;;1042727;28;20009;-49
2021/03/03 00:32:00;;;;;;;42.90;26.10;;;;;;;;;;1041037;28;20013;-48
2021/03/03 00:32:30;;;;;;;38.13;25.83;;;;;;;;;;1040995;28;20021;-49
2021/03/03 00:33:01;;;;;;;36.67;25.93;;;;;;;;;;1041189;28;20370;-50
2021/03/03 00:33:31;;;;;;;40.10;26.33;;;;;;;;;;1043263;28;20017;-49
2021/03/03 00:34:01;;;;;;;39.57;26.53;;;;;;;;;;1045057;28;20458;-49
2021/03/03 00:34:32;;;;;;;39.23;24.13;;;;;;;;;;1045201;28;20013;-50
2021/03/03 00:35:02;;;;;;;39.30;24.40;;;;;;;;;;1045218;28;20454;-51
2021/03/03 00:35:32;;;;;;;36.77;24.53;;;;;;;;;;1042273;28;20136;-49
2021/03/03 00:36:03;;;;;;;33.80;23.30;;;;;;;;;;1041000;28;20339;-48
2021/03/03 00:36:33;;;;;;;41.40;23.73;;;;;;;;;;1041011;28;20013;-50
2021/03/03 00:37:03;;;;;;;34.03;25.03;;;;;;;;;;1040795;28;20108;-49
2021/03/03 00:37:34;;;;;;;35.10;23.90;;;;;;;;;;1043473;28;20070;-49
2021/03/03 00:38:04;;;;;;;37.47;24.13;;;;;;;;;;1040869;28;20009;-50
2021/03/03 00:38:34;;;;;;;39.73;24.67;;;;;;;;;;1040581;28;20100;-48
2021/03/03 00:39:05;;;;;;;38.57;24.67;;;;;;;;;;1044709;28;20017;-49
2021/03/03 00:39:35;;;;;;;37.43;22.87;;;;;;;;;;1041216;28;20059;-51
2021/03/03 00:40:06;;;;;;;36.83;22.93;;;;;;;;;;1041159;28;20052;-50
2021/03/03 00:40:36;;;;;;;39.03;24.57;;;;;;;;;;1041012;28;20017;-50
2021/03/03 00:41:06;;;;;;;36.87;23.73;;;;;;;;;;1041019;28;20024;-50
2021/03/03 00:41:37;;;;;;;36.67;23.43;;;;;;;;;;1044112;28;20410;-50
2021/03/03 00:42:07;;;;;;;37.77;23.40;;;;;;;;;;1045223;28;20017;-50
2021/03/03 00:42:37;;;;;;;36.37;22.70;;;;;;;;;;1045187;28;20017;-49
2021/03/03 00:43:08;;;;;;;36.77;22.80;;;;;;;;;;1045273;28;20005;-49
2021/03/03 00:43:38;;;;;;;35.43;23.33;;;;;;;;;;1041436;28;20063;-49
2021/03/03 00:44:08;;;;;;;35.80;23.67;;;;;;;;;;1041049;28;20052;-50
2021/03/03 00:44:39;;;;;;;37.77;24.13;;;;;;;;;;1041028;28;20017;-50
2021/03/03 00:45:09;;;;;;;35.90;23.80;;;;;;;;;;1040872;28;20105;-50
2021/03/03 00:45:39;;;;;;;37.30;22.97;;;;;;;;;;1044436;28;20043;-49
2021/03/03 00:46:11;;;;;;;40.77;23.17;;;;;;;;;;1045104;28;20071;-49
2021/03/03 00:46:41;;;;;;;38.95;23.48;;;;;;;;;;1045165;28;20103;-48
2021/03/03 00:47:11;;;;;;;34.93;22.97;;;;;;;;;;1045096;28;20029;-49
2021/03/03 00:47:42;;;;;;;33.90;23.83;;;;;;;;;;1040763;28;20072;-51
2021/03/03 00:48:12;;;;;;;38.73;23.37;;;;;;;;;;1040681;28;20021;-49
2021/03/03 00:48:42;;;;;;;34.47;23.73;;;;;;;;;;1036539;28;20028;-51
2021/03/03 00:49:13;;;;;;;36.40;21.93;;;;;;;;;;1036522;28;20460;-50
2021/03/03 00:49:43;;;;;;;33.73;21.43;;;;;;;;;;1032414;28;20066;-48
2021/03/03 00:50:14;;;;;;;34.53;21.97;;;;;;;;;;1032124;28;20526;-50
2021/03/03 00:50:44;;;;;;;32.03;21.80;;;;;;;;;;1036398;28;20036;-49
2021/03/03 00:51:15;;;;;;;36.87;23.17;;;;;;;;;;1036846;28;20018;-50
2021/03/03 00:51:45;;;;;;;36.20;22.57;;;;;;;;;;1040829;28;20184;-50
2021/03/03 00:52:15;;;;;;;32.27;21.67;;;;;;;;;;1040775;28;20482;-49
2021/03/03 00:52:46;;;;;;;33.07;21.60;;;;;;;;;;1044842;28;20025;-51
2021/03/03 00:53:16;;;;;;;33.43;21.13;;;;;;;;;;1044183;28;20460;-48
2021/03/03 00:53:46;;;;;;;33.07;22.10;;;;;;;;;;1040530;28;20021;-49
2021/03/03 00:54:16;;;;;;;33.80;21.33;;;;;;;;;;1040771;28;20170;-51
2021/03/03 00:54:47;;;;;;;33.90;21.43;;;;;;;;;;1040782;28;20033;-49
2021/03/03 00:55:17;;;;;;;32.67;22.07;;;;;;;;;;1041113;28;20044;-51
2021/03/03 00:55:51;;;;;;;28.73;21.73;;;;;;;;;;1045188;28;20041;-48
2021/03/03 00:56:21;;;;;;;34.35;21.00;;;;;;;;;;1044946;28;20017;-50
2021/03/03 00:56:51;;;;;;;33.67;21.87;;;;;;;;;;1045234;28;20044;-49
2021/03/03 00:57:22;;;;;;;43.73;22.87;;;;;;;;;;1043782;28;20012;-51
2021/03/03 00:57:52;;;;;;;34.67;23.53;;;;;;;;;;1041010;28;20013;-49
2021/03/03 00:58:22;;;;;;;36.57;21.53;;;;;;;;;;1040986;28;20104;-50
2021/03/03 00:58:52;;;;;;;35.70;22.97;;;;;;;;;;1041040;28;20010;-49
2021/03/03 00:59:23;;;;;;;35.27;23.03;;;;;;;;;;1042254;28;20059;-50
2021/03/03 00:59:53;;;;;;;34.13;22.40;;;;;;;;;;1045188;28;20108;-51
2021/03/03 01:00:23;;;;;;;33.97;23.03;;;;;;;;;;1044943;28;20039;-53
2021/03/03 01:00:54;;;;;;;34.53;22.77;;;;;;;;;;1044444;28;20017;-51
2021/03/03 01:01:24;;;;;;;35.93;23.27;;;;;;;;;;1043202;28;20412;-49
2021/03/03 01:01:54;;;;;;;32.10;21.43;;;;;;;;;;1040420;28;20071;-52
2021/03/03 01:02:24;;;;;;;34.07;22.23;;;;;;;;;;1040402;28;20073;-52
2021/03/03 01:02:55;;;;;;;33.53;22.30;;;;;;;;;;1040854;28;20002;-49
2021/03/03 01:03:25;;;;;;;36.10;21.47;;;;;;;;;;1042101;28;20061;-50
2021/03/03 01:03:55;;;;;;;37.43;22.80;;;;;;;;;;1045184;28;20005;-49
2021/03/03 01:04:26;;;;;;;34.93;21.90;;;;;;;;;;1044692;28;20478;-49
2021/03/03 01:04:56;;;;;;;31.37;21.97;;;;;;;;;;1044769;28;20103;-50
2021/03/03 01:05:26;;;;;;;32.17;21.90;;;;;;;;;;1042594;28;20009;-49
2021/03/03 01:05:57;;;;;;;35.57;21.20;;;;;;;;;;1040661;28;20530;-49
2021/03/03 01:06:27;;;;;;;37.23;21.83;;;;;;;;;;1040818;28;20009;-50
2021/03/03 01:06:57;;;;;;;31.80;21.30;;;;;;;;;;1041136;28;20316;-50
2021/03/03 01:07:27;;;;;;;31.47;22.13;;;;;;;;;;1042739;28;20091;-49
2021/03/03 01:07:58;;;;;;;31.03;21.83;;;;;;;;;;1045282;28;20009;-52
2021/03/03 01:08:28;;;;;;;33.33;22.17;;;;;;;;;;1044577;28;20130;-48
2021/03/03 01:08:59;;;;;;;36.10;22.00;;;;;;;;;;1044790;28;20006;-49
2021/03/03 01:09:29;;;;;;;29.30;20.87;;;;;;;;;;1038209;28;20089;-49
2021/03/03 01:09:59;;;;;;;31.30;21.30;;;;;;;;;;1036674;28;20056;-49
2021/03/03 01:10:30;;;;;;;33.70;21.13;;;;;;;;;;1040544;28;20006;-48
2021/03/03 01:11:00;;;;;;;30.10;20.77;;;;;;;;;;1040767;28;20036;-50
2021/03/03 01:11:30;;;;;;;31.27;21.67;;;;;;;;;;1042154;28;20064;-51
2021/03/03 01:12:01;;;;;;;32.37;21.93;;;;;;;;;;1044689;28;20441;-49
2021/03/03 01:12:31;;;;;;;31.93;21.33;;;;;;;;;;1040560;28;20066;-52
2021/03/03 01:13:01;;;;;;;33.87;21.80;;;;;;;;;;1044976;28;20012;-49
2021/03/03 01:13:32;;;;;;;32.20;21.80;;;;;;;;;;1041797;28;20027;-50
2021/03/03 01:14:02;;;;;;;35.20;23.30;;;;;;;;;;1036677;28;20093;-52
2021/03/03 01:14:32;;;;;;;40.43;23.67;;;;;;;;;;1040586;28;20013;-49
2021/03/03 01:15:03;;;;;;;33.93;22.53;;;;;;;;;;1040677;28;20006;-49
2021/03/03 01:15:33;;;;;;;32.57;22.93;;;;;;;;;;1039149;28;20026;-49
2021/03/03 01:16:04;;;;;;;36.50;22.93;;;;;;;;;;1044820;28;20005;-50
2021/03/03 01:16:34;;;;;;;31.53;21.37;;;;;;;;;;1044650;28;20017;-49
2021/03/03 01:17:04;;;;;;;33.47;22.67;;;;;;;;;;1044845;28;20012;-51
2021/03/03 01:17:35;;;;;;;31.17;21.70;;;;;;;;;;1041908;28;20020;-50
2021/03/03 01:18:05;;;;;;;32.93;21.97;;;;;;;;;;1041041;28;20033;-49
2021/03/03 01:18:35;;;;;;;32.40;21.80;;;;;;;;;;1040970;28;20393;-49
2021/03/03 01:19:06;;;;;;;33.90;21.93;;;;;;;;;;1041125;28;20058;-50
2021/03/03 01:19:36;;;;;;;37.80;22.13;;;;;;;;;;1040967;28;20121;-50
2021/03/03 01:20:06;;;;;;;30.73;22.00;;;;;;;;;;1040566;28;20036;-49
2021/03/03 01:20:37;;;;;;;32.97;22.13;;;;;;;;;;1040398;28;20040;-49
2021/03/03 01:21:07;;;;;;;31.57;21.93;;;;;;;;;;1040617;28;20056;-50
2021/03/03 01:21:37;;;;;;;32.30;22.17;;;;;;;;;;1040526;28;20045;-49
2021/03/03 01:22:08;;;;;;;32.10;22.50;;;;;;;;;;1040266;28;20009;-51
2021/03/03 01:22:38;;;;;;;32.53;22.03;;;;;;;;;;1040716;28;20077;-50
2021/03/03 01:23:08;;;;;;;33.00;22.30;;;;;;;;;;1041017;28;20009;-49
2021/03/03 01:23:39;;;;;;;32.43;21.10;;;;;;;;;;1040145;28;20017;-49
2021/03/03 01:24:10;;;;;;;34.23;22.47;;;;;;;;;;1040565;28;20067;-51
2021/03/03 01:24:40;;;;;;;29.85;20.88;;;;;;;;;;1040532;28;20127;-52
2021/03/03 01:25:11;;;;;;;31.83;20.67;;;;;;;;;;1040535;28;20032;-49
2021/03/03 01:25:41;;;;;;;33.47;21.53;;;;;;;;;;1041003;28;20018;-49
2021/03/03 01:26:12;;;;;;;36.07;21.80;;;;;;;;;;1040933;28;20104;-50
2021/03/03 01:26:42;;;;;;;42.10;22.10;;;;;;;;;;1041069;28;20013;-50
2021/03/03 01:27:12;;;;;;;32.13;21.60;;;;;;;;;;1040797;28;20164;-49
2021/03/03 01:27:43;;;;;;;30.60;21.67;;;;;;;;;;1040579;28;20121;-49
2021/03/03 01:28:13;;;;;;;32.50;21.03;;;;;;;;;;1040605;28;20014;-49
2021/03/03 01:28:43;;;;;;;31.83;21.60;;;;;;;;;;1036520;28;20022;-49
2021/03/03 01:29:14;;;;;;;30.70;21.27;;;;;;;;;;1036458;28;20093;-52
2021/03/03 01:29:44;;;;;;;30.50;21.00;;;;;;;;;;1036504;28;20029;-49
2021/03/03 01:30:14;;;;;;;36.70;22.77;;;;;;;;;;1036462;28;20375;-49
2021/03/03 01:30:45;;;;;;;32.60;22.93;;;;;;;;;;1036460;28;20060;-50
2021/03/03 01:31:15;;;;;;;34.40;22.87;;;;;;;;;;1036569;28;20164;-49
2021/03/03 01:31:45;;;;;;;32.03;21.47;;;;;;;;;;1040518;28;20055;-49
2021/03/03 01:32:16;;;;;;;31.17;20.73;;;;;;;;;;1040536;28;20486;-51
2021/03/03 01:32:46;;;;;;;31.73;21.03;;;;;;;;;;1040899;28;20017;-49
2021/03/03 01:33:26;;;;;;;32.93;21.23;;;;;;;;;;1040823;28;20014;-53
2021/03/03 01:33:56;;;;;;;30.30;20.90;;;;;;;;;;1040480;28;20057;-50
2021/03/03 01:34:26;;;;;;;33.43;22.43;;;;;;;;;;1040466;28;20119;-49
2021/03/03 01:34:56;;;;;;;32.23;22.93;;;;;;;;;;1040617;28;20014;-51
2021/03/03 01:35:27;;;;;;;30.00;21.83;;;;;;;;;;1040296;28;20013;-49
2021/03/03 01:35:57;;;;;;;34.77;22.33;;;;;;;;;;1040484;28;20104;-48
2021/03/03 01:36:27;;;;;;;32.57;22.50;;;;;;;;;;1040494;28;20228;-50
2021/03/03 01:36:57;;;;;;;33.33;21.67;;;;;;;;;;1040702;28;20021;-49
2021/03/03 01:37:28;;;;;;;34.40;22.17;;;;;;;;;;1040852;28;20014;-50
2021/03/03 01:37:58;;;;;;;28.80;20.93;;;;;;;;;;1040790;28;20121;-49
2021/03/03 01:38:28;;;;;;;30.43;20.57;;;;;;;;;;1040497;28;20461;-50
2021/03/03 01:38:59;;;;;;;33.20;22.00;;;;;;;;;;1040498;28;20074;-50
2021/03/03 01:39:29;;;;;;;39.33;22.97;;;;;;;;;;1040428;28;20029;-51
2021/03/03 01:39:59;;;;;;;30.03;22.10;;;;;;;;;;1036405;28;20025;-53
2021/03/03 01:40:29;;;;;;;31.93;22.67;;;;;;;;;;1040631;28;20379;-49
2021/03/03 01:41:00;;;;;;;36.93;22.33;;;;;;;;;;1040488;28;20025;-48
2021/03/03 01:41:30;;;;;;;35.57;23.10;;;;;;;;;;1040410;28;20029;-51
2021/03/03 01:42:00;;;;;;;33.10;22.77;;;;;;;;;;1040833;28;20013;-48
2021/03/03 01:42:30;;;;;;;31.83;21.27;;;;;;;;;;1040516;28;20045;-51
2021/03/03 01:43:01;;;;;;;41.03;22.60;;;;;;;;;;1040308;28;20009;-49
2021/03/03 01:43:31;;;;;;;32.43;21.70;;;;;;;;;;1040256;28;20459;-48
2021/03/03 01:44:02;;;;;;;31.60;22.53;;;;;;;;;;1040525;28;20454;-48
2021/03/03 01:44:32;;;;;;;31.83;21.07;;;;;;;;;;1040761;28;20436;-48
2021/03/03 01:45:03;;;;;;;32.70;22.10;;;;;;;;;;1040834;28;20065;-48
2021/03/03 01:45:34;;;;;;;29.97;21.23;;;;;;;;;;1040607;28;20478;-48
2021/03/03 01:46:04;;;;;;;31.97;20.90;;;;;;;;;;1040968;28;20294;-51
2021/03/03 01:46:34;;;;;;;30.27;20.63;;;;;;;;;;1040593;28;20021;-52
2021/03/03 01:47:04;;;;;;;30.87;21.43;;;;;;;;;;1040830;28;20009;-50
2021/03/03 01:47:35;;;;;;;34.73;21.40;;;;;;;;;;1040864;28;20045;-53
2021/03/03 01:48:05;;;;;;;34.13;21.93;;;;;;;;;;1040538;28;20123;-49
2021/03/03 01:48:36;;;;;;;32.23;20.47;;;;;;;;;;1036469;28;20014;-50
2021/03/03 01:49:06;;;;;;;30.90;20.73;;;;;;;;;;1036123;28;20049;-50
2021/03/03 01:49:36;;;;;;;30.67;19.67;;;;;;;;;;1036557;28;20105;-49
2021/03/03 01:50:07;;;;;;;30.77;19.17;;;;;;;;;;1040548;28;20565;-50
2021/03/03 01:50:38;;;;;;;31.48;20.48;;;;;;;;;;1040519;28;20018;-50
2021/03/03 01:51:08;;;;;;;29.33;20.13;;;;;;;;;;1036322;28;20045;-52
2021/03/03 01:51:39;;;;;;;29.40;19.97;;;;;;;;;;1032183;28;20030;-50
2021/03/03 01:52:09;;;;;;;30.37;19.53;;;;;;;;;;1032478;28;20022;-51
2021/03/03 01:52:42;;;;;;;34.50;20.50;;;;;;;;;;1036374;28;20463;-51
2021/03/03 01:53:12;;;;;;;28.70;19.50;;;;;;;;;;1040541;28;20394;-49
2021/03/03 01:53:43;;;;;;;32.63;20.87;;;;;;;;;;1040176;28;20475;-48
2021/03/03 01:54:13;;;;;;;33.13;20.43;;;;;;;;;;1040480;28;20091;-53
2021/03/03 01:54:43;;;;;;;31.40;20.97;;;;;;;;;;1035834;28;20014;-48
2021/03/03 01:55:14;;;;;;;33.23;20.90;;;;;;;;;;1036100;28;20030;-51
2021/03/03 01:55:44;;;;;;;31.77;21.33;;;;;;;;;;1040011;28;20025;-52
2021/03/03 01:56:14;;;;;;;32.87;21.03;;;;;;;;;;1036183;28;20340;-49
2021/03/03 01:56:47;;;;;;;29.90;20.67;;;;;;;;;;1036416;28;20503;-51
2021/03/03 01:57:17;;;;;;;32.15;20.92;;;;;;;;;;1036362;28;20010;-50
2021/03/03 01:57:47;;;;;;;31.50;20.13;;;;;;;;;;1036686;28;20039;-49
2021/03/03 01:58:18;;;;;;;30.93;19.50;;;;;;;;;;1040533;28;20021;-49
2021/03/03 01:58:48;;;;;;;29.17;20.13;;;;;;;;;;1040690;28;20108;-49
2021/03/03 01:59:18;;;;;;;28.20;19.27;;;;;;;;;;1040761;28;20097;-50
2021/03/03 01:59:48;;;;;;;28.83;18.87;;;;;;;;;;1040698;28;20243;-50
2021/03/03 02:00:19;;;;;;;31.03;19.73;;;;;;;;;;1036250;28;20116;-52
2021/03/03 02:00:49;;;;;;;29.73;20.03;;;;;;;;;;1036293;28;20018;-52
2021/03/03 02:01:22;;;;;;;27.92;19.48;;;;;;;;;;1036337;28;20022;-52
2021/03/03 02:01:53;;;;;;;32.17;20.20;;;;;;;;;;1036720;28;20047;-50
2021/03/03 02:02:24;;;;;;;28.23;18.73;;;;;;;;;;1040734;28;20418;-50
2021/03/03 02:02:54;;;;;;;32.75;19.92;;;;;;;;;;1040621;28;20521;-50
2021/03/03 02:03:24;;;;;;;31.37;19.80;;;;;;;;;;1040577;28;20052;-50
2021/03/03 02:03:55;;;;;;;35.07;19.83;;;;;;;;;;1040666;28;20378;-52
2021/03/03 02:04:25;;;;;;;31.73;19.97;;;;;;;;;;1040754;28;20040;-50
2021/03/03 02:04:55;;;;;;;28.20;19.53;;;;;;;;;;1040577;28;20085;-50
2021/03/03 02:05:25;;;;;;;30.43;19.53;;;;;;;;;;1036046;28;20120;-50
2021/03/03 02:05:58;;;;;;;28.70;19.87;;;;;;;;;;1032419;28;20072;-50
2021/03/03 02:06:47;;;;;;;29.50;19.67;;;;;;;;;;1032550;28;20115;-49
2021/03/03 02:07:18;;;;;;;28.52;19.83;;;;;;;;;;1039205;28;20148;-50
2021/03/03 02:08:03;;;;;;;28.77;19.48;;;;;;;;;;1040625;28;20005;-49
2021/03/03 02:08:41;;;;;;;30.88;22.05;;;;;;;;;;1040679;28;20025;-51
2021/03/03 02:09:17;;;;;;;33.60;19.50;;;;;;;;;;1040379;28;20013;-51
2021/03/03 02:10:01;;;;;;;30.48;20.35;;;;;;;;;;1036235;28;20018;-49
2021/03/03 02:10:34;;;;;;;29.08;19.77;;;;;;;;;;1036383;28;20487;-50
2021/03/03 02:11:23;;;;;;;28.52;19.33;;;;;;;;;;1035188;28;20403;-50
2021/03/03 02:12:02;;;;;;;26.95;18.60;;;;;;;;;;1040436;28;20027;-48
2021/03/03 02:12:40;;;;;;;27.30;19.92;;;;;;;;;;1040309;28;20459;-49
2021/03/03 02:13:28;;;;;;;27.98;19.13;;;;;;;;;;1036251;28;20514;-49
2021/03/03 02:13:59;;;;;;;28.90;19.90;;;;;;;;;;1031692;28;20106;-51
2021/03/03 02:14:30;;;;;;;31.05;19.23;;;;;;;;;;1028097;28;20073;-49
2021/03/03 02:15:00;;;;;;;28.60;19.40;;;;;;;;;;1033128;28;20102;-49
2021/03/03 02:15:30;;;;;;;32.40;20.27;;;;;;;;;;1032131;28;20049;-50
2021/03/03 02:16:01;;;;;;;30.20;21.10;;;;;;;;;;1032028;28;20014;-51
2021/03/03 02:16:32;;;;;;;28.33;20.00;;;;;;;;;;1028038;28;20180;-49
2021/03/03 02:17:02;;;;;;;32.23;19.87;;;;;;;;;;1024309;28;20019;-49
2021/03/03 02:17:32;;;;;;;27.60;20.83;;;;;;;;;;1024233;28;20019;-49
2021/03/03 02:18:04;;;;;;;32.07;21.23;;;;;;;;;;1032181;28;20478;-49
2021/03/03 02:18:35;;;;;;;28.73;19.15;;;;;;;;;;1032445;28;20023;-50
2021/03/03 02:19:05;;;;;;;29.60;20.10;;;;;;;;;;1036435;28;20022;-49
2021/03/03 02:19:36;;;;;;;31.37;20.90;;;;;;;;;;1036364;28;20022;-52
2021/03/03 02:20:07;;;;;;;30.43;21.20;;;;;;;;;;1036398;28;20072;-49
2021/03/03 02:20:42;;;;;;;29.73;20.05;;;;;;;;;;1036427;28;20026;-51
2021/03/03 02:21:12;;;;;;;29.98;19.30;;;;;;;;;;1032660;28;20088;-50
2021/03/03 02:21:43;;;;;;;32.10;21.07;;;;;;;;;;1036299;28;20084;-50
2021/03/03 02:22:25;;;;;;;29.03;19.30;;;;;;;;;;1032171;28;20011;-49
2021/03/03 02:23:06;;;;;;;26.27;19.35;;;;;;;;;;1035642;28;20253;-49
2021/03/03 02:23:57;;;;;;;27.65;18.30;;;;;;;;;;1040073;28;20022;-49
2021/03/03 02:24:27;;;;;;;;;;;;;;;;;;1032095;28;20120;-50
2021/03/03 02:25:06;;;;;;;26.63;18.17;;;;;;;;;;1032267;28;19898;-50
2021/03/03 02:25:36;;;;;;;29.67;18.60;;;;;;;;;;1027906;28;20023;-49
2021/03/03 02:26:06;;;;;;;27.37;18.40;;;;;;;;;;1029198;28;20019;-50
2021/03/03 02:26:37;;;;;;;25.70;18.03;;;;;;;;;;1027963;28;20019;-49
2021/03/03 02:27:08;;;;;;;30.77;18.80;;;;;;;;;;1023933;28;20052;-50
2021/03/03 02:27:38;;;;;;;29.20;19.40;;;;;;;;;;1028114;28;20006;-51
2021/03/03 02:28:08;;;;;;;30.43;19.47;;;;;;;;;;1028093;28;20007;-53
2021/03/03 02:28:38;;;;;;;29.23;19.30;;;;;;;;;;1032158;28;20538;-49
2021/03/03 02:29:09;;;;;;;28.10;19.20;;;;;;;;;;1032043;28;20024;-49
2021/03/03 02:29:40;;;;;;;28.83;18.77;;;;;;;;;;1032119;28;20013;-49
2021/03/03 02:30:10;;;;;;;29.90;20.33;;;;;;;;;;1028065;28;20046;-49
2021/03/03 02:30:42;;;;;;;31.23;19.87;;;;;;;;;;1024047;28;20098;-48
2021/03/03 02:31:15;;;;;;;29.48;20.33;;;;;;;;;;1028097;28;20003;-49
2021/03/03 02:31:45;;;;;;;31.05;19.60;;;;;;;;;;1028586;28;20054;-49
2021/03/03 02:32:16;;;;;;;29.07;19.53;;;;;;;;;;1028590;28;20081;-49
2021/03/03 02:32:46;;;;;;;27.10;18.97;;;;;;;;;;1032091;28;20014;-48
2021/03/03 02:33:17;;;;;;;27.53;18.77;;;;;;;;;;1027941;28;20503;-51
2021/03/03 02:33:47;;;;;;;26.93;19.13;;;;;;;;;;1023924;29;20015;-49
2021/03/03 02:34:18;;;;;;;30.87;20.00;;;;;;;;;;1020070;29;20008;-52
2021/03/03 02:34:48;;;;;;;30.47;18.87;;;;;;;;;;1020211;29;20366;-49
2021/03/03 02:35:19;;;;;;;31.80;19.77;;;;;;;;;;1023895;28;20330;-48
2021/03/03 02:35:50;;;;;;;26.95;18.98;;;;;;;;;;1028299;28;20069;-48
2021/03/03 02:36:21;;;;;;;30.00;19.97;;;;;;;;;;1031823;28;20015;-49
2021/03/03 02:36:51;;;;;;;31.05;21.00;;;;;;;;;;1028010;28;20027;-50
2021/03/03 02:37:21;;;;;;;26.47;18.70;;;;;;;;;;1024245;28;20015;-48
2021/03/03 02:37:52;;;;;;;30.17;19.83;;;;;;;;;;1024009;29;20012;-51
2021/03/03 02:38:22;;;;;;;29.60;19.73;;;;;;;;;;1023957;29;20501;-49
2021/03/03 02:38:52;;;;;;;25.03;18.73;;;;;;;;;;1028100;28;20007;-49
2021/03/03 02:39:23;;;;;;;28.00;19.67;;;;;;;;;;1024019;29;20094;-48
2021/03/03 02:39:53;;;;;;;26.70;18.90;;;;;;;;;;1028028;28;20014;-49
2021/03/03 02:40:24;;;;;;;28.57;19.57;;;;;;;;;;1024048;28;20516;-49
2021/03/03 02:40:54;;;;;;;29.00;19.43;;;;;;;;;;1024035;28;20011;-49
2021/03/03 02:41:24;;;;;;;31.00;19.27;;;;;;;;;;1027973;28;20018;-49
2021/03/03 02:41:55;;;;;;;27.53;18.67;;;;;;;;;;1028030;28;20026;-51
2021/03/03 02:42:25;;;;;;;26.57;19.10;;;;;;;;;;1032079;28;20543;-49
2021/03/03 02:42:55;;;;;;;30.10;19.93;;;;;;;;;;1027782;28;20029;-50
2021/03/03 02:43:25;;;;;;;31.70;21.10;;;;;;;;;;1027913;28;20013;-52
2021/03/03 02:43:56;;;;;;;30.17;20.80;;;;;;;;;;1024046;29;20003;-49
2021/03/03 02:44:26;;;;;;;29.23;20.27;;;;;;;;;;1024126;29;20015;-50
2021/03/03 02:44:56;;;;;;;36.83;21.63;;;;;;;;;;1028038;28;20017;-50
2021/03/03 02:45:27;;;;;;;32.30;20.30;;;;;;;;;;1028000;28;20011;-50
2021/03/03 02:45:57;;;;;;;29.93;20.23;;;;;;;;;;1028035;28;20125;-50
2021/03/03 02:46:27;;;;;;;29.33;20.80;;;;;;;;;;1024138;28;20473;-52
2021/03/03 02:46:58;;;;;;;27.43;19.90;;;;;;;;;;1024032;28;20095;-49
2021/03/03 02:47:28;;;;;;;33.40;21.53;;;;;;;;;;1028000;28;20007;-50
2021/03/03 02:47:59;;;;;;;31.87;20.30;;;;;;;;;;1027938;28;20480;-50
2021/03/03 02:48:29;;;;;;;30.30;20.50;;;;;;;;;;1024144;28;20034;-48
2021/03/03 02:49:00;;;;;;;27.30;18.37;;;;;;;;;;1027935;28;20014;-52
2021/03/03 02:49:30;;;;;;;30.90;20.53;;;;;;;;;;1024317;28;20033;-51
2021/03/03 02:50:01;;;;;;;31.93;18.57;;;;;;;;;;1024007;28;20015;-52
2021/03/03 02:50:31;;;;;;;27.97;19.50;;;;;;;;;;1028011;28;20022;-49
2021/03/03 02:51:01;;;;;;;27.23;18.87;;;;;;;;;;1028136;28;20007;-49
2021/03/03 02:51:32;;;;;;;27.47;19.20;;;;;;;;;;1028238;28;20021;-50
2021/03/03 02:52:02;;;;;;;32.80;19.17;;;;;;;;;;1032120;28;20016;-50
2021/03/03 02:52:47;;;;;;;31.13;18.40;;;;;;;;;;1032126;28;20049;-49
2021/03/03 02:53:18;;;;;;;27.90;17.90;;;;;;;;;;1028143;28;20360;-48
2021/03/03 02:53:48;;;;;;;28.63;18.33;;;;;;;;;;1026061;28;20023;-48
2021/03/03 02:54:18;;;;;;;28.70;18.70;;;;;;;;;;1028148;28;20026;-49
2021/03/03 02:54:49;;;;;;;28.17;18.87;;;;;;;;;;1028035;28;20007;-50
2021/03/03 02:55:19;;;;;;;26.40;19.03;;;;;;;;;;1032118;28;20101;-50
2021/03/03 02:55:50;;;;;;;28.67;18.03;;;;;;;;;;1036165;28;20451;-52
2021/03/03 02:56:20;;;;;;;29.73;18.63;;;;;;;;;;1036083;28;20025;-49
2021/03/03 02:56:50;;;;;;;25.40;18.43;;;;;;;;;;1036419;28;20543;-53
2021/03/03 02:57:21;;;;;;;24.57;17.97;;;;;;;;;;1036145;28;20006;-49
2021/03/03 02:57:57;;;;;;;32.30;18.50;;;;;;;;;;1036156;28;20144;-52
2021/03/03 02:58:28;;;;;;;27.98;17.88;;;;;;;;;;1036272;28;20064;-51
2021/03/03 02:58:58;;;;;;;27.33;18.73;;;;;;;;;;1036278;28;20096;-49
2021/03/03 02:59:37;;;;;;;28.23;17.90;;;;;;;;;;1036305;28;20009;-51
2021/03/03 03:00:08;;;;;;;26.77;17.10;;;;;;;;;;1036287;28;20089;-49
2021/03/03 03:00:41;;;;;;;26.33;18.80;;;;;;;;;;1032264;28;20109;-50